Time;durP1;ratioP1;P1;durP2;ratioP2;P2;SDS_P1;SDS_P2;PMS_P1;PMS_P2;Temp;Humidity;BMP_temperature;BMP_pressure;BME280_temperature;BME280_humidity;BME280_pressure;Samples;Min_cycle;Max_cycle;Signal;HPM_P1;HPM_P2
2022/06/30 00:01:27;;;;;;;10.82;10.30;;;24.50;70.50;;;;;;5024795;28;20193;-86
2022/06/30 00:03:54;;;;;;;10.85;10.15;;;24.50;70.60;;;;;;5007521;28;20305;-87
2022/06/30 00:06:19;;;;;;;11.55;10.95;;;24.50;70.60;;;;;;5007833;28;20205;-86
2022/06/30 00:08:45;;;;;;;11.02;10.43;;;24.40;71.00;;;;;;4991588;28;20197;-85
2022/06/30 00:11:11;;;;;;;10.57;10.00;;;24.40;70.80;;;;;;5008035;28;20829;-88
2022/06/30 00:13:39;;;;;;;10.02;9.43;;;24.40;70.50;;;;;;5024921;28;20264;-86
2022/06/30 00:16:06;;;;;;;10.00;9.50;;;24.30;71.40;;;;;;5005368;28;20560;-85
2022/06/30 00:18:33;;;;;;;10.77;10.10;;;24.20;71.90;;;;;;5025824;28;20188;-87
2022/06/30 00:20:59;;;;;;;10.40;9.88;;;24.10;72.00;;;;;;5021933;28;20659;-86
2022/06/30 00:23:25;;;;;;;10.25;9.55;;;24.20;71.80;;;;;;5024205;28;20213;-86
2022/06/30 00:25:51;;;;;;;11.32;10.32;;;24.10;72.10;;;;;;5002827;28;20293;-85
2022/06/30 00:28:19;;;;;;;10.40;9.95;;;24.00;72.00;;;;;;5017721;28;20198;-86
2022/06/30 00:30:49;;;;;;;10.70;10.15;;;24.00;72.10;;;;;;5021132;28;20178;-85
2022/06/30 00:33:15;;;;;;;10.98;10.25;;;23.90;72.70;;;;;;5024670;28;20201;-86
2022/06/30 00:35:41;;;;;;;10.88;10.07;;;23.90;72.80;;;;;;5031644;28;20247;-88
2022/06/30 00:38:07;;;;;;;9.63;9.02;;;23.80;73.10;;;;;;4999548;28;20451;-85
2022/06/30 00:40:43;;;;;;;10.43;9.82;;;23.70;73.20;;;;;;5015738;28;20186;-85
2022/06/30 00:43:09;;;;;;;10.07;9.45;;;23.70;73.30;;;;;;5023466;28;20205;-85
2022/06/30 00:45:41;;;;;;;9.35;8.82;;;23.80;73.30;;;;;;5024490;28;20264;-86
2022/06/30 00:48:07;;;;;;;9.65;9.15;;;23.80;73.20;;;;;;5006779;28;20205;-86
2022/06/30 00:50:33;;;;;;;10.18;9.55;;;23.70;73.00;;;;;;5021641;28;20193;-85
2022/06/30 00:53:02;;;;;;;9.02;8.63;;;23.60;74.20;;;;;;5019550;28;20288;-84
2022/06/30 00:55:29;;;;;;;10.05;9.23;;;23.40;75.10;;;;;;4991759;28;20197;-85
2022/06/30 00:57:59;;;;;;;9.32;8.93;;;23.40;75.40;;;;;;5024888;28;20216;-84
2022/06/30 01:00:26;;;;;;;8.88;8.38;;;23.50;74.70;;;;;;5022256;28;20197;-87
2022/06/30 01:02:53;;;;;;;8.93;8.43;;;23.50;74.40;;;;;;5012819;28;20210;-86
2022/06/30 01:05:21;;;;;;;9.13;8.50;;;23.40;74.30;;;;;;5022372;28;20214;-89
2022/06/30 01:07:47;;;;;;;8.93;8.43;;;23.50;74.60;;;;;;5024449;28;20719;-87
2022/06/30 01:12:57;;;;;;;8.52;8.07;;;23.50;74.30;;;;;;5017375;28;20261;-84
2022/06/30 01:15:23;;;;;;;8.55;8.15;;;23.50;74.00;;;;;;5020425;28;20600;-88
2022/06/30 01:17:50;;;;;;;9.90;8.98;;;23.50;73.60;;;;;;5024227;28;20224;-85
2022/06/30 01:20:18;;;;;;;8.15;7.75;;;23.30;73.70;;;;;;4995609;28;20190;-85
2022/06/30 01:22:44;;;;;;;8.90;8.18;;;23.20;75.00;;;;;;5022502;28;20273;-85
2022/06/30 01:25:11;;;;;;;8.60;8.10;;;23.10;75.20;;;;;;5006130;28;20205;-86
2022/06/30 01:27:37;;;;;;;7.95;7.55;;;23.10;75.50;;;;;;5015893;28;20221;-85
2022/06/30 01:30:05;;;;;;;8.32;7.93;;;23.10;75.50;;;;;;5028887;28;20185;-86
2022/06/30 01:32:30;;;;;;;7.60;7.22;;;23.10;75.40;;;;;;5022424;28;20273;-85
2022/06/30 01:34:57;;;;;;;8.38;7.82;;;23.10;75.60;;;;;;5005405;28;20194;-87
2022/06/30 01:37:24;;;;;;;8.18;7.57;;;23.10;75.20;;;;;;5011436;28;20192;-85
2022/06/30 01:39:50;;;;;;;8.02;7.63;;;22.90;75.70;;;;;;5019854;28;20212;-86
2022/06/30 01:42:15;;;;;;;7.07;6.65;;;22.90;76.50;;;;;;5029426;28;20276;-87
2022/06/30 01:44:41;;;;;;;7.45;6.85;;;22.90;76.50;;;;;;5029069;28;20723;-86
2022/06/30 01:47:09;;;;;;;7.95;7.43;;;22.90;76.50;;;;;;5023354;28;20262;-87
2022/06/30 01:49:34;;;;;;;7.07;6.63;;;22.90;76.60;;;;;;5003022;28;20253;-85
2022/06/30 01:52:00;;;;;;;7.93;7.25;;;22.90;76.60;;;;;;5016384;28;20221;-89
2022/06/30 01:54:26;;;;;;;8.93;8.32;;;22.80;76.40;;;;;;5035324;28;20181;-88
2022/06/30 01:56:51;;;;;;;7.95;7.50;;;22.80;76.70;;;;;;5013442;28;20245;-86
2022/06/30 01:59:17;;;;;;;8.52;8.02;;;22.70;77.60;;;;;;5008590;28;20272;-85
2022/06/30 02:01:43;;;;;;;7.53;7.13;;;22.70;77.50;;;;;;5027705;28;20197;-85
2022/06/30 02:06:53;;;;;;;7.45;6.95;;;22.70;77.20;;;;;;5015730;28;20233;-86
2022/06/30 02:09:18;;;;;;;7.57;6.97;;;22.60;77.40;;;;;;4998402;28;20199;-86
2022/06/30 02:11:44;;;;;;;7.88;7.38;;;22.60;78.10;;;;;;5020007;28;20669;-88
2022/06/30 02:14:10;;;;;;;7.40;7.00;;;22.60;77.50;;;;;;5023374;28;20258;-84
2022/06/30 02:16:36;;;;;;;7.30;6.90;;;22.60;77.00;;;;;;5008749;28;20190;-85
2022/06/30 02:19:02;;;;;;;8.20;7.70;;;22.60;77.50;;;;;;5026747;28;20200;-84
2022/06/30 02:21:28;;;;;;;7.93;7.43;;;22.60;78.40;;;;;;5021018;28;20181;-85
2022/06/30 02:23:54;;;;;;;9.18;8.57;;;22.50;78.20;;;;;;5020160;28;20226;-84
2022/06/30 02:26:20;;;;;;;7.90;7.43;;;22.50;78.70;;;;;;5005937;28;20189;-86
2022/06/30 02:28:45;;;;;;;8.07;7.47;;;22.50;78.40;;;;;;5021966;28;20193;-85
2022/06/30 02:31:14;;;;;;;8.05;7.45;;;22.50;77.80;;;;;;5027598;28;20223;-84
2022/06/30 02:33:40;;;;;;;8.55;7.93;;;22.50;77.30;;;;;;5016295;28;20198;-88
2022/06/30 02:36:06;;;;;;;7.60;7.07;;;22.30;77.50;;;;;;5021368;28;20209;-83
2022/06/30 02:38:32;;;;;;;8.40;7.70;;;22.10;78.40;;;;;;5001136;28;20190;-85
2022/06/30 02:40:58;;;;;;;7.55;6.93;;;22.10;78.50;;;;;;5006795;28;20190;-84
2022/06/30 02:43:24;;;;;;;8.13;7.63;;;22.10;79.20;;;;;;5018254;28;20238;-85
2022/06/30 02:45:50;;;;;;;7.25;6.85;;;22.10;78.40;;;;;;5015251;28;20194;-86
2022/06/30 02:48:16;;;;;;;7.63;7.13;;;22.20;78.90;;;;;;5008383;28;20185;-87
2022/06/30 02:50:44;;;;;;;8.07;7.43;;;22.10;78.00;;;;;;5023629;28;20272;-85
2022/06/30 02:53:11;;;;;;;7.25;6.75;;;22.10;77.50;;;;;;5028754;28;20257;-86
2022/06/30 02:55:37;;;;;;;7.53;7.10;;;22.10;77.30;;;;;;5025433;28;20201;-85
2022/06/30 02:58:02;;;;;;;6.95;6.45;;;22.10;76.90;;;;;;5025421;28;20200;-85
2022/06/30 03:00:28;;;;;;;7.63;7.13;;;22.20;76.90;;;;;;5015916;28;20190;-86
2022/06/30 03:02:55;;;;;;;7.95;7.43;;;22.20;76.80;;;;;;5021559;28;20217;-88
2022/06/30 03:05:21;;;;;;;8.20;7.70;;;22.20;76.70;;;;;;5015716;28;20236;-86
2022/06/30 03:07:47;;;;;;;7.32;6.93;;;22.10;77.40;;;;;;5015709;28;20186;-85
2022/06/30 03:10:13;;;;;;;8.25;7.60;;;22.10;77.30;;;;;;5024130;28;20190;-85
2022/06/30 03:12:39;;;;;;;7.60;7.07;;;22.10;77.30;;;;;;5026627;28;20700;-84
2022/06/30 03:15:06;;;;;;;7.90;7.30;;;22.10;77.00;;;;;;5006033;28;20202;-87
2022/06/30 03:17:32;;;;;;;7.28;6.68;;;22.10;76.90;;;;;;5014145;28;20190;-85
2022/06/30 03:19:58;;;;;;;6.97;6.68;;;22.00;77.30;;;;;;5013300;28;20264;-85
2022/06/30 03:22:24;;;;;;;7.25;6.75;;;22.00;77.30;;;;;;5007706;28;20696;-84
2022/06/30 03:24:49;;;;;;;7.38;6.97;;;21.90;77.50;;;;;;5025200;28;20217;-84
2022/06/30 03:27:15;;;;;;;7.50;7.00;;;21.90;77.70;;;;;;5027298;28;20229;-85
2022/06/30 03:29:41;;;;;;;7.38;6.85;;;21.90;77.50;;;;;;5023978;28;20186;-85
2022/06/30 03:32:07;;;;;;;7.32;6.75;;;21.90;77.10;;;;;;4993320;28;20189;-86
2022/06/30 03:34:33;;;;;;;7.45;6.78;;;21.80;78.20;;;;;;5007490;28;20715;-84
2022/06/30 03:36:58;;;;;;;7.85;7.35;;;21.80;79.00;;;;;;5015037;28;20198;-85
2022/06/30 03:39:24;;;;;;;8.18;7.40;;;21.70;78.10;;;;;;5021961;28;20194;-86
2022/06/30 03:41:50;;;;;;;7.20;6.80;;;21.70;78.30;;;;;;5021966;28;20284;-85
2022/06/30 03:44:15;;;;;;;8.13;7.60;;;21.80;78.30;;;;;;5027373;28;20213;-85
2022/06/30 03:46:41;;;;;;;7.28;6.88;;;21.80;78.50;;;;;;5021916;28;20198;-86
2022/06/30 03:49:08;;;;;;;7.78;7.28;;;21.80;78.50;;;;;;4983124;28;20218;-85
2022/06/30 03:51:34;;;;;;;7.68;7.18;;;21.90;78.10;;;;;;5024334;28;20177;-85
2022/06/30 03:53:59;;;;;;;7.43;6.93;;;21.90;78.00;;;;;;5022814;28;20245;-85
2022/06/30 03:56:25;;;;;;;8.35;7.82;;;22.00;77.80;;;;;;5026180;28;20197;-86
2022/06/30 03:58:52;;;;;;;8.45;7.75;;;21.90;77.30;;;;;;5014449;28;20198;-85
2022/06/30 04:01:18;;;;;;;7.25;6.65;;;21.70;78.10;;;;;;5019596;28;20178;-87
2022/06/30 04:03:44;;;;;;;8.25;7.55;;;21.60;78.90;;;;;;5016962;28;20244;-86
2022/06/30 04:06:09;;;;;;;7.13;6.63;;;21.50;79.80;;;;;;5033418;28;20243;-86
2022/06/30 04:08:35;;;;;;;7.85;6.90;;;21.60;79.60;;;;;;5006008;28;20201;-87
2022/06/30 04:11:01;;;;;;;9.95;8.02;;;21.60;79.50;;;;;;5021342;28;20194;-86
2022/06/30 04:13:26;;;;;;;8.68;7.72;;;21.50;80.00;;;;;;5027145;28;20201;-85
2022/06/30 04:15:55;;;;;;;7.43;7.03;;;21.60;79.50;;;;;;5019125;28;20250;-85
2022/06/30 04:18:21;;;;;;;7.32;6.72;;;21.60;79.70;;;;;;5020323;28;20343;-86
2022/06/30 04:20:47;;;;;;;7.38;6.97;;;21.60;79.60;;;;;;5003022;28;20197;-87
2022/06/30 04:23:12;;;;;;;6.85;6.55;;;21.60;79.90;;;;;;5023630;28;20221;-86
2022/06/30 04:25:38;;;;;;;8.05;7.18;;;21.70;79.70;;;;;;5017867;28;20221;-87
2022/06/30 04:28:05;;;;;;;7.68;7.00;;;21.60;80.20;;;;;;5014570;28;20205;-86
2022/06/30 04:33:15;;;;;;;8.20;7.70;;;21.70;79.90;;;;;;5013279;28;20225;-86
2022/06/30 04:35:41;;;;;;;7.25;6.85;;;21.60;80.10;;;;;;5009405;28;20190;-86
2022/06/30 04:38:07;;;;;;;7.97;7.45;;;21.80;79.70;;;;;;5002081;28;20201;-86
2022/06/30 04:43:17;;;;;;;7.70;7.10;;;21.80;79.20;;;;;;5037173;28;20204;-85
2022/06/30 04:45:43;;;;;;;8.38;7.78;;;21.70;77.20;;;;;;5027253;28;20233;-87
2022/06/30 04:48:09;;;;;;;8.40;7.78;;;21.60;77.80;;;;;;5015762;28;20259;-84
2022/06/30 04:50:35;;;;;;;8.55;7.75;;;21.30;79.50;;;;;;5021507;28;20225;-85
2022/06/30 04:53:00;;;;;;;8.25;7.75;;;21.20;81.00;;;;;;5017828;28;20284;-86
2022/06/30 04:55:26;;;;;;;8.27;7.78;;;21.20;81.90;;;;;;5024252;28;20263;-86
2022/06/30 04:57:52;;;;;;;9.07;8.27;;;21.40;81.20;;;;;;5015076;28;20189;-87
2022/06/30 05:00:17;;;;;;;8.77;8.13;;;21.50;81.00;;;;;;5016631;28;20212;-85
2022/06/30 05:02:43;;;;;;;9.00;8.10;;;21.50;81.10;;;;;;4999313;28;20214;-85
2022/06/30 05:05:09;;;;;;;8.57;7.97;;;21.50;80.90;;;;;;5016688;28;20213;-87
2022/06/30 05:07:36;;;;;;;8.20;7.80;;;21.60;80.80;;;;;;5025321;28;20186;-86
2022/06/30 05:10:03;;;;;;;8.13;7.53;;;21.70;79.80;;;;;;5018579;28;20205;-86
2022/06/30 05:12:28;;;;;;;7.78;7.38;;;21.80;79.00;;;;;;5019453;28;20204;-86
2022/06/30 05:14:54;;;;;;;7.15;6.75;;;21.80;78.70;;;;;;5019787;28;20233;-88
2022/06/30 05:17:20;;;;;;;8.82;8.00;;;21.90;78.10;;;;;;5023878;28;20198;-86
2022/06/30 05:19:46;;;;;;;8.35;7.65;;;21.80;78.40;;;;;;5013039;28;20680;-85
2022/06/30 05:22:11;;;;;;;7.72;7.22;;;21.90;78.10;;;;;;5022478;28;20193;-87
2022/06/30 05:27:45;;;;;;;7.70;7.03;;;22.00;77.30;;;;;;4983870;28;20230;-86
2022/06/30 05:30:11;;;;;;;7.68;7.00;;;21.90;78.90;;;;;;4985113;28;20202;-86
2022/06/30 05:32:37;;;;;;;8.30;7.50;;;22.00;81.40;;;;;;5008177;28;20264;-86
2022/06/30 05:35:04;;;;;;;7.93;7.32;;;22.10;81.00;;;;;;5028280;28;20660;-86
2022/06/30 05:37:30;;;;;;;7.93;7.53;;;22.20;79.80;;;;;;5024074;28;20185;-86
2022/06/30 05:39:56;;;;;;;8.52;7.80;;;22.20;80.60;;;;;;5023097;28;20200;-86
2022/06/30 05:42:21;;;;;;;8.25;7.55;;;22.20;81.30;;;;;;5027638;28;20213;-86
2022/06/30 05:44:48;;;;;;;8.23;7.47;;;22.20;80.10;;;;;;5020679;28;20225;-86
2022/06/30 05:47:15;;;;;;;8.50;8.00;;;22.30;80.00;;;;;;5025847;28;20212;-86
2022/06/30 05:49:40;;;;;;;8.00;7.50;;;22.20;81.20;;;;;;5020195;28;20731;-84
2022/06/30 05:52:06;;;;;;;8.48;7.97;;;22.30;81.30;;;;;;5019559;28;20210;-85
2022/06/30 05:54:38;;;;;;;8.48;7.93;;;22.40;82.80;;;;;;4998641;28;20201;-85
2022/06/30 05:57:04;;;;;;;9.27;8.40;;;22.40;81.90;;;;;;4994665;28;20193;-86
2022/06/30 05:59:32;;;;;;;8.30;7.80;;;22.60;80.60;;;;;;5014200;28;20209;-86
2022/06/30 06:01:59;;;;;;;8.77;8.18;;;22.60;80.30;;;;;;5025354;28;20192;-86
2022/06/30 06:04:25;;;;;;;8.63;8.13;;;22.70;81.70;;;;;;5023709;28;20302;-86
2022/06/30 06:06:51;;;;;;;8.20;7.57;;;22.70;81.10;;;;;;5026459;28;20217;-86
2022/06/30 06:09:17;;;;;;;8.93;8.32;;;22.80;79.80;;;;;;5026858;28;20194;-86
2022/06/30 06:11:43;;;;;;;8.57;8.07;;;22.80;80.00;;;;;;5020055;28;20190;-86
2022/06/30 06:14:09;;;;;;;8.93;8.43;;;22.90;79.40;;;;;;5029926;28;20696;-86
2022/06/30 06:16:35;;;;;;;9.23;8.50;;;23.00;79.50;;;;;;5018470;28;20188;-86
2022/06/30 06:19:01;;;;;;;9.23;8.43;;;23.20;78.50;;;;;;4988910;28;20198;-86
2022/06/30 06:21:27;;;;;;;8.20;7.70;;;23.30;76.40;;;;;;5020833;28;20197;-88
2022/06/30 06:23:53;;;;;;;8.50;8.00;;;23.40;75.80;;;;;;5017050;28;20233;-87
2022/06/30 06:26:20;;;;;;;8.18;7.55;;;23.50;76.10;;;;;;5013787;28;20187;-86
2022/06/30 06:31:30;;;;;;;8.73;8.23;;;23.70;75.70;;;;;;5026064;28;20189;-86
2022/06/30 06:33:56;;;;;;;9.98;9.15;;;23.70;75.80;;;;;;5002695;28;20575;-85
2022/06/30 06:36:21;;;;;;;8.63;8.15;;;23.80;76.00;;;;;;5016708;28;20256;-86
2022/06/30 06:38:47;;;;;;;8.48;7.88;;;23.90;75.10;;;;;;5019517;28;20610;-86
2022/06/30 06:41:14;;;;;;;10.05;9.35;;;23.90;74.00;;;;;;5013625;28;20189;-87
2022/06/30 06:43:40;;;;;;;9.20;8.50;;;23.90;74.20;;;;;;5014814;28;20211;-86
2022/06/30 06:46:06;;;;;;;9.43;8.85;;;23.90;74.30;;;;;;5012792;28;20191;-87
2022/06/30 06:48:32;;;;;;;9.30;8.60;;;24.00;74.60;;;;;;5014254;28;20191;-88
2022/06/30 06:50:57;;;;;;;9.85;9.35;;;24.20;73.00;;;;;;5022807;28;20663;-87
2022/06/30 06:53:23;;;;;;;8.60;8.00;;;24.20;70.60;;;;;;5016503;28;20237;-86
2022/06/30 06:55:49;;;;;;;8.98;8.18;;;24.20;68.60;;;;;;5012643;28;20647;-86
2022/06/30 06:58:15;;;;;;;8.57;8.07;;;24.20;71.00;;;;;;5011766;28;20246;-86
2022/06/30 07:00:40;;;;;;;8.40;7.90;;;24.20;72.20;;;;;;5019170;28;20280;-87
2022/06/30 07:03:06;;;;;;;8.73;8.23;;;24.20;72.20;;;;;;4999479;28;20218;-87
2022/06/30 07:05:32;;;;;;;8.43;7.82;;;24.30;72.80;;;;;;5021929;28;20715;-87
2022/06/30 07:07:59;;;;;;;8.80;8.20;;;24.30;72.50;;;;;;5019367;28;20201;-87
2022/06/30 07:10:26;;;;;;;8.50;8.10;;;24.30;70.90;;;;;;5017081;28;20268;-86
2022/06/30 07:12:53;;;;;;;9.18;8.57;;;24.50;72.00;;;;;;5012383;28;20224;-85
2022/06/30 07:15:20;;;;;;;9.27;8.68;;;24.50;72.50;;;;;;5012330;28;20228;-86
2022/06/30 07:17:45;;;;;;;10.43;9.52;;;24.70;70.50;;;;;;5017188;28;20252;-87
2022/06/30 07:20:11;;;;;;;9.95;9.27;;;24.70;71.40;;;;;;5015835;28;20205;-86
2022/06/30 07:22:37;;;;;;;9.90;9.20;;;24.80;69.80;;;;;;5015195;28;20226;-87
2022/06/30 07:25:05;;;;;;;8.88;8.32;;;24.80;69.20;;;;;;5006701;28;20692;-87
2022/06/30 07:27:31;;;;;;;9.77;9.07;;;25.00;70.80;;;;;;5009944;28;20194;-86
2022/06/30 07:29:57;;;;;;;10.20;9.57;;;25.00;73.60;;;;;;5029636;28;20197;-87
2022/06/30 07:32:23;;;;;;;9.48;8.88;;;25.00;70.80;;;;;;5037100;28;20186;-87
2022/06/30 07:34:49;;;;;;;8.90;8.30;;;25.00;69.70;;;;;;5020461;28;20193;-86
2022/06/30 07:37:14;;;;;;;9.77;8.98;;;25.00;71.90;;;;;;5010372;28;20175;-88
2022/06/30 07:39:40;;;;;;;10.43;9.93;;;25.00;72.30;;;;;;5026173;28;20201;-86
2022/06/30 07:42:06;;;;;;;10.02;9.23;;;25.20;71.00;;;;;;5023619;28;20255;-85
2022/06/30 07:44:32;;;;;;;9.98;9.25;;;25.30;70.40;;;;;;5005423;28;20591;-87
2022/06/30 07:46:57;;;;;;;10.50;9.63;;;25.30;69.40;;;;;;5026961;28;20182;-86
2022/06/30 07:49:23;;;;;;;9.57;8.90;;;25.40;68.90;;;;;;5020988;28;20206;-86
2022/06/30 07:51:49;;;;;;;11.00;10.30;;;25.50;68.50;;;;;;5021929;28;20193;-87
2022/06/30 07:54:15;;;;;;;10.05;9.25;;;25.60;68.80;;;;;;5017527;28;20244;-87
2022/06/30 07:56:41;;;;;;;11.02;10.25;;;25.70;70.20;;;;;;5019491;28;20241;-87
2022/06/30 07:59:07;;;;;;;10.50;9.73;;;25.80;69.00;;;;;;5021813;28;20190;-86
2022/06/30 08:01:32;;;;;;;11.10;10.27;;;25.90;64.80;;;;;;5001910;28;20197;-86
2022/06/30 08:03:58;;;;;;;9.95;9.25;;;25.90;65.20;;;;;;5015118;28;20213;-86
2022/06/30 08:06:24;;;;;;;11.05;10.25;;;26.00;65.20;;;;;;5029111;28;20687;-86
2022/06/30 08:08:51;;;;;;;10.32;9.60;;;26.10;65.60;;;;;;5015579;28;20217;-86
2022/06/30 08:11:17;;;;;;;11.07;10.18;;;26.30;65.00;;;;;;5016407;28;20195;-86
2022/06/30 08:13:43;;;;;;;11.10;10.38;;;26.30;63.80;;;;;;5015340;28;20366;-87
2022/06/30 08:16:11;;;;;;;12.13;11.45;;;26.30;63.70;;;;;;4984167;28;20294;-86
2022/06/30 08:18:36;;;;;;;12.52;11.50;;;26.40;63.70;;;;;;5007734;28;20198;-86
2022/06/30 08:21:03;;;;;;;11.00;9.98;;;26.40;64.00;;;;;;5011301;28;20186;-86
2022/06/30 08:23:29;;;;;;;10.10;9.43;;;26.50;61.90;;;;;;5013832;28;20217;-86
2022/06/30 08:25:55;;;;;;;10.90;10.10;;;26.70;60.50;;;;;;5020923;28;20249;-86
2022/06/30 08:28:22;;;;;;;12.38;11.68;;;26.90;57.60;;;;;;5013898;28;20232;-86
2022/06/30 08:30:50;;;;;;;12.70;11.73;;;27.00;59.20;;;;;;4986192;28;20208;-86
2022/06/30 08:33:16;;;;;;;12.48;11.52;;;27.00;60.60;;;;;;5008255;28;20202;-86
2022/06/30 08:35:42;;;;;;;12.45;11.52;;;27.10;60.30;;;;;;4994542;28;20206;-86
2022/06/30 08:38:07;;;;;;;12.05;11.32;;;27.10;60.20;;;;;;5012211;28;20259;-86
2022/06/30 08:43:19;;;;;;;10.48;9.77;;;27.40;55.40;;;;;;5015225;28;20239;-86
2022/06/30 08:45:46;;;;;;;10.35;9.70;;;27.40;54.90;;;;;;5008185;28;20261;-86
2022/06/30 08:48:12;;;;;;;9.75;8.93;;;27.60;54.60;;;;;;4995536;28;20189;-86
2022/06/30 08:50:43;;;;;;;9.35;8.85;;;27.70;53.60;;;;;;5007875;28;20210;-86
2022/06/30 08:53:09;;;;;;;8.77;8.18;;;27.90;53.70;;;;;;5011189;28;20206;-87
2022/06/30 08:55:36;;;;;;;9.60;8.93;;;28.10;53.00;;;;;;5009599;28;20665;-86
2022/06/30 08:58:19;;;;;;;8.65;8.00;;;28.30;53.60;;;;;;5016679;28;20248;-86
2022/06/30 09:00:45;;;;;;;9.77;9.15;;;28.60;50.30;;;;;;4997782;28;20223;-87
2022/06/30 09:03:11;;;;;;;10.57;9.68;;;28.80;52.00;;;;;;5004413;28;20206;-87
2022/06/30 09:05:38;;;;;;;10.68;10.18;;;29.00;50.00;;;;;;5019063;28;20221;-86
2022/06/30 09:08:04;;;;;;;11.45;10.63;;;29.20;49.80;;;;;;5016906;28;20181;-86
2022/06/30 09:10:30;;;;;;;12.45;11.55;;;29.20;51.40;;;;;;5020166;28;21047;-86
2022/06/30 09:13:03;;;;;;;12.88;12.23;;;29.40;50.20;;;;;;5014261;28;20213;-86
2022/06/30 09:15:30;;;;;;;12.30;11.50;;;29.50;49.00;;;;;;5009145;28;20275;-87
2022/06/30 09:17:57;;;;;;;12.13;11.43;;;29.50;48.90;;;;;;5014823;28;20236;-86
2022/06/30 09:20:37;;;;;;;12.93;12.05;;;29.70;47.70;;;;;;5009162;28;20240;-86
2022/06/30 09:23:20;;;;;;;12.48;11.60;;;29.80;47.80;;;;;;5009120;28;20225;-86
2022/06/30 09:25:49;;;;;;;11.95;11.25;;;29.80;47.50;;;;;;5017740;28;20212;-86
2022/06/30 09:28:15;;;;;;;11.65;10.85;;;30.00;46.60;;;;;;5015924;28;20212;-86
2022/06/30 09:30:41;;;;;;;10.90;10.30;;;30.00;45.80;;;;;;5008177;28;20270;-86
2022/06/30 09:33:08;;;;;;;10.05;9.35;;;30.10;44.50;;;;;;5014650;28;20241;-86
2022/06/30 09:35:38;;;;;;;10.65;9.68;;;30.20;44.70;;;;;;5021331;28;20285;-86
2022/06/30 09:38:10;;;;;;;9.75;9.05;;;30.30;44.40;;;;;;5018866;28;20202;-86
2022/06/30 09:41:00;;;;;;;9.25;8.65;;;30.20;42.00;;;;;;5018829;28;20181;-86
2022/06/30 09:43:35;;;;;;;10.13;9.32;;;30.50;42.40;;;;;;5010804;28;20202;-86
2022/06/30 09:46:02;;;;;;;9.75;9.15;;;30.50;43.70;;;;;;5001864;28;20235;-85
2022/06/30 09:48:31;;;;;;;9.57;9.02;;;30.80;43.90;;;;;;4993995;28;20201;-87
2022/06/30 09:51:01;;;;;;;8.63;8.10;;;31.00;44.40;;;;;;5019999;28;20182;-86
2022/06/30 09:53:27;;;;;;;8.65;8.07;;;31.10;42.40;;;;;;5017318;28;20198;-85
2022/06/30 09:55:54;;;;;;;9.40;8.75;;;31.20;42.10;;;;;;5021752;28;20257;-85
2022/06/30 09:58:28;;;;;;;8.43;7.93;;;31.30;42.20;;;;;;5023518;28;20196;-86
2022/06/30 10:00:54;;;;;;;9.18;8.77;;;31.50;41.20;;;;;;5016672;28;20177;-86
2022/06/30 10:03:20;;;;;;;9.38;8.77;;;31.50;41.20;;;;;;5012218;28;20647;-86
2022/06/30 10:05:49;;;;;;;9.10;8.60;;;31.50;40.50;;;;;;5019952;28;20236;-86
2022/06/30 10:08:16;;;;;;;10.30;9.70;;;31.70;39.60;;;;;;5017367;28;20190;-87
2022/06/30 10:10:43;;;;;;;11.75;10.98;;;31.40;39.70;;;;;;5026299;28;20186;-87
2022/06/30 10:13:17;;;;;;;11.13;10.63;;;31.40;41.50;;;;;;5018538;28;20203;-87
2022/06/30 10:15:54;;;;;;;12.35;11.75;;;31.20;40.40;;;;;;5023230;28;20820;-86
2022/06/30 10:18:25;;;;;;;11.75;11.05;;;31.10;42.30;;;;;;5021055;28;20185;-88
2022/06/30 10:20:51;;;;;;;11.93;11.32;;;30.90;42.30;;;;;;5038934;28;20200;-86
2022/06/30 10:23:22;;;;;;;12.93;12.27;;;30.90;42.60;;;;;;5032732;28;20226;-88
2022/06/30 10:25:54;;;;;;;12.48;11.60;;;30.90;41.70;;;;;;5020339;28;20229;-87
2022/06/30 10:28:30;;;;;;;12.73;12.13;;;31.20;41.50;;;;;;5031906;28;20237;-86
2022/06/30 10:31:06;;;;;;;14.48;13.50;;;31.50;42.20;;;;;;5025757;28;20185;-85
2022/06/30 10:33:32;;;;;;;12.93;12.20;;;31.60;41.80;;;;;;5009992;28;20228;-86
2022/06/30 10:36:05;;;;;;;13.02;12.27;;;31.30;42.50;;;;;;5028380;28;20587;-86
2022/06/30 10:38:50;;;;;;;13.05;12.15;;;31.10;42.20;;;;;;5023074;28;20208;-85
2022/06/30 10:41:17;;;;;;;14.07;13.38;;;30.80;42.90;;;;;;5015252;28;20296;-86
2022/06/30 10:44:05;;;;;;;13.20;12.60;;;30.80;42.80;;;;;;5012315;28;20206;-85
2022/06/30 10:46:57;;;;;;;13.60;13.00;;;31.50;42.10;;;;;;5018123;28;20241;-85
2022/06/30 10:49:27;;;;;;;13.13;12.43;;;31.80;41.80;;;;;;5024719;28;20217;-85
2022/06/30 10:52:20;;;;;;;12.88;12.38;;;32.10;41.50;;;;;;4998395;28;20189;-86
2022/06/30 10:54:46;;;;;;;14.07;13.38;;;32.40;40.50;;;;;;5001991;28;20222;-86
2022/06/30 10:57:17;;;;;;;14.52;13.82;;;32.40;40.40;;;;;;5024755;28;20322;-87
2022/06/30 10:59:43;;;;;;;14.45;13.80;;;32.20;41.00;;;;;;5024237;28;20197;-86
2022/06/30 11:02:11;;;;;;;14.38;13.27;;;32.40;38.90;;;;;;5019919;28;20244;-86
2022/06/30 11:04:41;;;;;;;15.40;14.60;;;32.70;38.20;;;;;;5020169;28;20636;-86
2022/06/30 11:07:24;;;;;;;14.13;13.45;;;33.20;39.40;;;;;;5019856;28;20203;-87
2022/06/30 11:09:51;;;;;;;14.80;14.10;;;33.00;38.30;;;;;;4998266;28;20192;-86
2022/06/30 11:12:31;;;;;;;13.65;13.07;;;33.20;37.60;;;;;;5018482;28;20181;-86
2022/06/30 11:14:58;;;;;;;13.27;12.48;;;33.30;37.30;;;;;;5014122;28;20178;-87
2022/06/30 11:17:28;;;;;;;12.65;11.95;;;33.00;37.70;;;;;;5022008;28;20194;-86
2022/06/30 11:20:03;;;;;;;12.82;12.23;;;32.90;37.70;;;;;;5012224;28;20181;-86
2022/06/30 11:22:30;;;;;;;12.48;11.80;;;32.50;38.80;;;;;;5002621;28;20210;-86
2022/06/30 11:24:58;;;;;;;12.52;11.90;;;32.70;37.60;;;;;;4985330;28;20692;-86
2022/06/30 11:27:28;;;;;;;12.25;11.75;;;32.80;37.80;;;;;;5000964;28;20235;-86
2022/06/30 11:29:58;;;;;;;12.32;11.73;;;33.00;37.50;;;;;;5012863;28;20277;-86
2022/06/30 11:32:25;;;;;;;13.25;12.55;;;33.30;38.00;;;;;;5014141;28;20205;-87
2022/06/30 11:34:51;;;;;;;13.50;12.63;;;33.70;37.70;;;;;;5016100;28;20189;-87
2022/06/30 11:37:21;;;;;;;12.85;11.95;;;34.00;37.90;;;;;;4994775;28;20205;-86
2022/06/30 11:39:46;;;;;;;12.63;12.05;;;34.20;35.70;;;;;;5015335;28;20187;-87
2022/06/30 11:42:12;;;;;;;12.40;11.80;;;34.50;35.10;;;;;;5020049;28;20257;-86
2022/06/30 11:44:42;;;;;;;12.70;12.00;;;34.50;33.80;;;;;;4985593;28;20236;-87
2022/06/30 11:47:18;;;;;;;13.95;13.25;;;34.50;34.70;;;;;;5020493;28;20200;-88
2022/06/30 11:49:55;;;;;;;13.40;12.75;;;34.50;35.00;;;;;;5024812;28;20196;-86
2022/06/30 11:52:31;;;;;;;14.23;13.52;;;34.50;34.40;;;;;;5007975;28;20201;-86
2022/06/30 11:55:09;;;;;;;14.27;13.68;;;34.50;34.60;;;;;;5014581;28;20174;-87
2022/06/30 11:57:40;;;;;;;15.10;14.40;;;34.90;34.70;;;;;;5010641;28;20181;-87
2022/06/30 12:00:06;;;;;;;15.82;15.00;;;35.00;34.50;;;;;;5018829;28;20186;-86
2022/06/30 12:02:33;;;;;;;16.10;15.27;;;34.90;34.90;;;;;;5012779;28;20259;-87
2022/06/30 12:05:01;;;;;;;16.58;15.77;;;35.00;34.60;;;;;;5012416;28;20205;-87
2022/06/30 12:07:29;;;;;;;16.13;15.43;;;35.20;34.70;;;;;;5021932;28;20181;-87
2022/06/30 12:09:57;;;;;;;17.55;16.75;;;35.30;34.30;;;;;;5012958;28;20185;-87
2022/06/30 12:12:28;;;;;;;17.88;17.13;;;35.50;34.30;;;;;;5013348;28;20262;-85
2022/06/30 12:14:58;;;;;;;17.88;17.15;;;35.80;34.00;;;;;;5004331;28;20190;-87
2022/06/30 12:17:29;;;;;;;18.55;17.75;;;35.70;33.40;;;;;;5013469;28;20190;-86
2022/06/30 12:19:55;;;;;;;19.23;18.27;;;35.80;33.40;;;;;;5015465;28;20181;-86
2022/06/30 12:22:21;;;;;;;20.60;19.70;;;35.70;33.20;;;;;;5004504;28;20216;-87
2022/06/30 12:24:48;;;;;;;19.65;18.63;;;35.60;34.30;;;;;;5005855;28;20556;-86
2022/06/30 12:27:28;;;;;;;19.15;18.08;;;35.80;33.90;;;;;;5016673;28;20177;-85
2022/06/30 12:30:04;;;;;;;19.27;18.27;;;35.50;33.90;;;;;;5013809;28;20182;-87
2022/06/30 12:32:30;;;;;;;19.52;18.42;;;35.70;33.30;;;;;;5016834;28;20233;-86
2022/06/30 12:34:59;;;;;;;18.52;17.83;;;35.80;32.60;;;;;;5014856;28;20185;-86
2022/06/30 12:37:45;;;;;;;19.73;18.83;;;36.20;33.20;;;;;;5017824;28;20189;-86
2022/06/30 12:40:15;;;;;;;20.35;19.42;;;36.60;32.60;;;;;;5017489;28;20228;-86
2022/06/30 12:42:46;;;;;;;21.40;20.50;;;36.60;32.90;;;;;;5011690;28;20201;-87
2022/06/30 12:45:46;;;;;;;21.73;20.73;;;36.60;31.50;;;;;;5013957;28;20224;-87
2022/06/30 12:48:14;;;;;;;22.55;21.30;;;36.90;32.20;;;;;;5031781;28;20255;-86
2022/06/30 12:50:44;;;;;;;21.52;20.63;;;36.70;31.00;;;;;;5016053;28;20184;-88
2022/06/30 12:53:23;;;;;;;20.88;19.98;;;36.40;31.80;;;;;;5011659;28;20561;-85
2022/06/30 12:56:19;;;;;;;21.13;20.33;;;36.60;31.30;;;;;;5017117;28;20188;-86
2022/06/30 12:59:07;;;;;;;21.30;20.40;;;36.80;31.10;;;;;;5012128;28;20209;-86
2022/06/30 13:01:39;;;;;;;23.02;21.80;;;36.70;31.50;;;;;;5013447;28;20202;-86